Beaverlodge, Canada
Current Conditions -  °F | °C
As of 7:00 AM on Monday 20 Oct 2014 (Local Time) from CYQU Reporting Station
Broken Clouds Broken Clouds  
Wind Chill: 36°   Ceiling: 8000
Heat Index: 36°   Visibility: 25mi
Dew Point: 34°   Wind: 2mph
Humidity: 93%   Direction: 20°NNE
Pressure: 29.51"   Gusts: NA
Location:  55.2°N, 119.45°W
Report Text: CYQU 201300Z 02002KT 25SM BKN080 BKN210 02/01 A2951 RMK AC5CI1 SLP010
Loading
Personal Weather Stations






























Interactive Weather Map
Tropical Storm Tracking
New forecast layout! Learn more

10-Day Weather Forecast

Advertisements
Track Severe Weather on mobile